sensor_id;sensor_type;location;lat;lon;timestamp;temperature;humidity
22966;DHT22;11649;48.090;9.754;2023-06-22T00:01:20;19.20;99.90
22966;DHT22;11649;48.090;9.754;2023-06-22T00:03:48;19.20;99.90
22966;DHT22;11649;48.090;9.754;2023-06-22T00:06:15;19.10;99.90
22966;DHT22;11649;48.090;9.754;2023-06-22T00:08:42;19.00;99.90
22966;DHT22;11649;48.090;9.754;2023-06-22T00:11:09;19.00;99.90
22966;DHT22;11649;48.090;9.754;2023-06-22T00:13:35;18.90;99.90
22966;DHT22;11649;48.090;9.754;2023-06-22T00:16:02;18.90;99.90
22966;DHT22;11649;48.090;9.754;2023-06-22T00:18:29;18.90;99.90
22966;DHT22;11649;48.090;9.754;2023-06-22T00:20:57;18.90;99.90
22966;DHT22;11649;48.090;9.754;2023-06-22T00:23:25;18.90;99.90
22966;DHT22;11649;48.090;9.754;2023-06-22T00:25:52;18.90;99.90
22966;DHT22;11649;48.090;9.754;2023-06-22T00:28:19;18.90;99.90
22966;DHT22;11649;48.090;9.754;2023-06-22T00:30:48;18.90;99.90
22966;DHT22;11649;48.090;9.754;2023-06-22T00:33:15;18.80;99.90
22966;DHT22;11649;48.090;9.754;2023-06-22T00:35:43;19.10;99.90
22966;DHT22;11649;48.090;9.754;2023-06-22T00:38:10;19.00;99.90
22966;DHT22;11649;48.090;9.754;2023-06-22T00:40:37;18.60;99.90
22966;DHT22;11649;48.090;9.754;2023-06-22T00:43:05;18.60;99.90
22966;DHT22;11649;48.090;9.754;2023-06-22T00:45:32;18.60;99.90
22966;DHT22;11649;48.090;9.754;2023-06-22T00:47:59;18.50;99.90
22966;DHT22;11649;48.090;9.754;2023-06-22T00:50:29;18.40;99.90
22966;DHT22;11649;48.090;9.754;2023-06-22T00:53:05;18.40;99.90
22966;DHT22;11649;48.090;9.754;2023-06-22T00:55:38;18.40;99.90
22966;DHT22;11649;48.090;9.754;2023-06-22T00:58:09;18.40;99.90
22966;DHT22;11649;48.090;9.754;2023-06-22T01:00:38;18.40;99.90
22966;DHT22;11649;48.090;9.754;2023-06-22T01:03:05;18.40;99.90
22966;DHT22;11649;48.090;9.754;2023-06-22T01:05:38;18.70;99.90
22966;DHT22;11649;48.090;9.754;2023-06-22T01:08:13;18.30;99.90
22966;DHT22;11649;48.090;9.754;2023-06-22T01:11:08;18.40;99.90
22966;DHT22;11649;48.090;9.754;2023-06-22T01:13:45;18.20;99.90
22966;DHT22;11649;48.090;9.754;2023-06-22T01:16:27;18.20;99.90
22966;DHT22;11649;48.090;9.754;2023-06-22T01:18:57;18.20;99.90
22966;DHT22;11649;48.090;9.754;2023-06-22T01:21:27;18.20;99.90
22966;DHT22;11649;48.090;9.754;2023-06-22T01:29:27;18.10;99.90
22966;DHT22;11649;48.090;9.754;2023-06-22T01:31:56;18.10;99.90
22966;DHT22;11649;48.090;9.754;2023-06-22T01:34:24;18.00;99.90
22966;DHT22;11649;48.090;9.754;2023-06-22T01:36:52;18.10;99.90
22966;DHT22;11649;48.090;9.754;2023-06-22T01:39:21;18.10;99.90
22966;DHT22;11649;48.090;9.754;2023-06-22T01:41:48;18.10;99.90
22966;DHT22;11649;48.090;9.754;2023-06-22T01:44:16;18.20;99.90
22966;DHT22;11649;48.090;9.754;2023-06-22T01:46:43;18.20;99.90
22966;DHT22;11649;48.090;9.754;2023-06-22T01:49:10;18.20;99.90
22966;DHT22;11649;48.090;9.754;2023-06-22T01:51:37;18.40;99.90
22966;DHT22;11649;48.090;9.754;2023-06-22T01:54:06;18.20;99.90
22966;DHT22;11649;48.090;9.754;2023-06-22T01:56:32;18.00;99.90
22966;DHT22;11649;48.090;9.754;2023-06-22T02:01:54;18.20;99.90
22966;DHT22;11649;48.090;9.754;2023-06-22T02:04:30;18.30;99.90
22966;DHT22;11649;48.090;9.754;2023-06-22T02:07:00;18.20;99.90
22966;DHT22;11649;48.090;9.754;2023-06-22T02:09:30;18.20;99.90
22966;DHT22;11649;48.090;9.754;2023-06-22T02:12:00;18.20;99.90
22966;DHT22;11649;48.090;9.754;2023-06-22T02:14:29;18.30;99.90
22966;DHT22;11649;48.090;9.754;2023-06-22T02:16:56;18.20;99.90
22966;DHT22;11649;48.090;9.754;2023-06-22T02:19:27;18.20;99.90
22966;DHT22;11649;48.090;9.754;2023-06-22T02:21:53;18.20;99.90
22966;DHT22;11649;48.090;9.754;2023-06-22T02:24:20;18.20;99.90
22966;DHT22;11649;48.090;9.754;2023-06-22T02:26:50;18.20;99.90
22966;DHT22;11649;48.090;9.754;2023-06-22T02:29:16;18.20;99.90
22966;DHT22;11649;48.090;9.754;2023-06-22T02:31:43;18.10;99.90
22966;DHT22;11649;48.090;9.754;2023-06-22T02:34:10;18.20;99.90
22966;DHT22;11649;48.090;9.754;2023-06-22T02:36:40;18.20;99.90
22966;DHT22;11649;48.090;9.754;2023-06-22T02:39:21;18.40;99.90
22966;DHT22;11649;48.090;9.754;2023-06-22T02:41:53;18.10;99.90
22966;DHT22;11649;48.090;9.754;2023-06-22T02:44:20;18.10;99.90
22966;DHT22;11649;48.090;9.754;2023-06-22T02:46:48;18.00;99.90
22966;DHT22;11649;48.090;9.754;2023-06-22T02:49:15;18.00;99.90
22966;DHT22;11649;48.090;9.754;2023-06-22T02:51:48;18.00;99.90
22966;DHT22;11649;48.090;9.754;2023-06-22T02:54:15;18.00;99.90
22966;DHT22;11649;48.090;9.754;2023-06-22T02:56:43;18.00;99.90
22966;DHT22;11649;48.090;9.754;2023-06-22T02:59:12;17.90;99.90
22966;DHT22;11649;48.090;9.754;2023-06-22T03:01:39;17.90;99.90
22966;DHT22;11649;48.090;9.754;2023-06-22T03:04:08;17.90;99.90
22966;DHT22;11649;48.090;9.754;2023-06-22T03:06:36;17.80;99.90
22966;DHT22;11649;48.090;9.754;2023-06-22T03:09:04;18.10;99.90
22966;DHT22;11649;48.090;9.754;2023-06-22T03:11:32;17.80;99.90
22966;DHT22;11649;48.090;9.754;2023-06-22T03:14:02;17.80;99.90
22966;DHT22;11649;48.090;9.754;2023-06-22T03:16:29;17.90;99.90
22966;DHT22;11649;48.090;9.754;2023-06-22T03:18:56;17.90;99.90
22966;DHT22;11649;48.090;9.754;2023-06-22T03:21:23;17.90;99.90
22966;DHT22;11649;48.090;9.754;2023-06-22T03:23:50;17.90;99.90
22966;DHT22;11649;48.090;9.754;2023-06-22T03:26:18;17.90;99.90
22966;DHT22;11649;48.090;9.754;2023-06-22T03:28:45;17.90;99.90
22966;DHT22;11649;48.090;9.754;2023-06-22T03:31:12;17.90;99.90
22966;DHT22;11649;48.090;9.754;2023-06-22T03:33:39;17.90;99.90
22966;DHT22;11649;48.090;9.754;2023-06-22T03:36:06;17.80;99.90
22966;DHT22;11649;48.090;9.754;2023-06-22T03:38:32;17.80;99.90
22966;DHT22;11649;48.090;9.754;2023-06-22T03:40:59;17.80;99.90
22966;DHT22;11649;48.090;9.754;2023-06-22T03:43:26;17.80;99.90
22966;DHT22;11649;48.090;9.754;2023-06-22T03:45:53;17.80;99.90
22966;DHT22;11649;48.090;9.754;2023-06-22T03:48:20;17.80;99.90
22966;DHT22;11649;48.090;9.754;2023-06-22T03:50:46;17.80;99.90
22966;DHT22;11649;48.090;9.754;2023-06-22T03:53:13;17.80;99.90
22966;DHT22;11649;48.090;9.754;2023-06-22T03:55:51;17.80;99.90
22966;DHT22;11649;48.090;9.754;2023-06-22T03:58:18;17.50;99.90
22966;DHT22;11649;48.090;9.754;2023-06-22T04:00:46;17.70;99.90
22966;DHT22;11649;48.090;9.754;2023-06-22T04:03:14;17.70;99.90
22966;DHT22;11649;48.090;9.754;2023-06-22T04:05:42;17.70;99.90
22966;DHT22;11649;48.090;9.754;2023-06-22T04:08:08;17.70;99.90
22966;DHT22;11649;48.090;9.754;2023-06-22T04:10:35;17.70;99.90
22966;DHT22;11649;48.090;9.754;2023-06-22T04:13:02;17.80;99.90
22966;DHT22;11649;48.090;9.754;2023-06-22T04:15:29;17.70;99.90
22966;DHT22;11649;48.090;9.754;2023-06-22T04:17:56;18.40;99.90
22966;DHT22;11649;48.090;9.754;2023-06-22T04:20:23;17.80;99.90
22966;DHT22;11649;48.090;9.754;2023-06-22T04:22:55;17.80;99.90
22966;DHT22;11649;48.090;9.754;2023-06-22T04:25:22;17.80;99.90
22966;DHT22;11649;48.090;9.754;2023-06-22T04:27:49;17.80;99.90
22966;DHT22;11649;48.090;9.754;2023-06-22T04:30:16;17.80;99.90
22966;DHT22;11649;48.090;9.754;2023-06-22T04:32:44;18.00;99.90
22966;DHT22;11649;48.090;9.754;2023-06-22T04:35:11;17.90;99.90
22966;DHT22;11649;48.090;9.754;2023-06-22T04:37:38;17.90;99.90
22966;DHT22;11649;48.090;9.754;2023-06-22T04:40:07;18.10;99.90
22966;DHT22;11649;48.090;9.754;2023-06-22T04:42:37;17.90;99.90
22966;DHT22;11649;48.090;9.754;2023-06-22T04:45:05;17.90;99.90
22966;DHT22;11649;48.090;9.754;2023-06-22T04:47:31;17.90;99.90
22966;DHT22;11649;48.090;9.754;2023-06-22T04:49:58;18.00;99.90
22966;DHT22;11649;48.090;9.754;2023-06-22T04:52:25;18.00;99.90
22966;DHT22;11649;48.090;9.754;2023-06-22T04:54:52;18.10;99.90
22966;DHT22;11649;48.090;9.754;2023-06-22T04:57:22;18.00;99.90
22966;DHT22;11649;48.090;9.754;2023-06-22T04:59:57;18.00;99.90
22966;DHT22;11649;48.090;9.754;2023-06-22T05:02:24;18.00;99.90
22966;DHT22;11649;48.090;9.754;2023-06-22T05:04:54;18.10;99.90
22966;DHT22;11649;48.090;9.754;2023-06-22T05:07:23;18.10;99.90
22966;DHT22;11649;48.090;9.754;2023-06-22T05:09:52;18.10;99.90
22966;DHT22;11649;48.090;9.754;2023-06-22T05:12:18;18.10;99.90
22966;DHT22;11649;48.090;9.754;2023-06-22T05:14:45;17.90;99.90
22966;DHT22;11649;48.090;9.754;2023-06-22T05:17:12;18.20;99.90
22966;DHT22;11649;48.090;9.754;2023-06-22T05:19:42;18.30;99.90
22966;DHT22;11649;48.090;9.754;2023-06-22T05:22:11;18.20;99.90
22966;DHT22;11649;48.090;9.754;2023-06-22T05:24:38;18.30;99.90
22966;DHT22;11649;48.090;9.754;2023-06-22T05:27:05;18.30;99.90
22966;DHT22;11649;48.090;9.754;2023-06-22T05:29:32;18.40;99.90
22966;DHT22;11649;48.090;9.754;2023-06-22T05:31:59;18.30;99.90
22966;DHT22;11649;48.090;9.754;2023-06-22T05:34:26;18.40;99.90
22966;DHT22;11649;48.090;9.754;2023-06-22T05:36:53;18.40;99.90
22966;DHT22;11649;48.090;9.754;2023-06-22T05:39:19;19.20;99.90
22966;DHT22;11649;48.090;9.754;2023-06-22T05:41:46;18.70;99.90
22966;DHT22;11649;48.090;9.754;2023-06-22T05:44:13;18.70;99.90
22966;DHT22;11649;48.090;9.754;2023-06-22T05:46:42;18.80;99.90
22966;DHT22;11649;48.090;9.754;2023-06-22T05:49:12;18.80;99.90
22966;DHT22;11649;48.090;9.754;2023-06-22T05:51:40;18.90;99.90
22966;DHT22;11649;48.090;9.754;2023-06-22T05:54:06;19.00;99.90
22966;DHT22;11649;48.090;9.754;2023-06-22T05:56:35;19.20;99.90
22966;DHT22;11649;48.090;9.754;2023-06-22T05:59:01;18.90;99.90
22966;DHT22;11649;48.090;9.754;2023-06-22T06:01:28;19.20;99.90
22966;DHT22;11649;48.090;9.754;2023-06-22T06:03:55;19.40;99.90
22966;DHT22;11649;48.090;9.754;2023-06-22T06:06:22;19.50;99.90
22966;DHT22;11649;48.090;9.754;2023-06-22T06:08:55;19.70;99.90
22966;DHT22;11649;48.090;9.754;2023-06-22T06:11:22;19.60;99.90
22966;DHT22;11649;48.090;9.754;2023-06-22T06:13:49;19.70;99.90
22966;DHT22;11649;48.090;9.754;2023-06-22T06:16:16;19.70;99.90
22966;DHT22;11649;48.090;9.754;2023-06-22T06:18:42;19.80;99.90
22966;DHT22;11649;48.090;9.754;2023-06-22T06:21:09;19.90;99.90
22966;DHT22;11649;48.090;9.754;2023-06-22T06:23:36;20.00;99.90
22966;DHT22;11649;48.090;9.754;2023-06-22T06:26:03;20.10;99.90
22966;DHT22;11649;48.090;9.754;2023-06-22T06:28:34;20.10;99.90
22966;DHT22;11649;48.090;9.754;2023-06-22T06:31:02;20.20;99.90
22966;DHT22;11649;48.090;9.754;2023-06-22T06:33:29;20.30;99.90
22966;DHT22;11649;48.090;9.754;2023-06-22T06:35:58;20.30;99.90
22966;DHT22;11649;48.090;9.754;2023-06-22T06:38:24;20.40;99.90
22966;DHT22;11649;48.090;9.754;2023-06-22T06:40:51;20.50;99.90
22966;DHT22;11649;48.090;9.754;2023-06-22T06:43:18;20.60;99.90
22966;DHT22;11649;48.090;9.754;2023-06-22T06:45:45;20.70;99.90
22966;DHT22;11649;48.090;9.754;2023-06-22T06:48:12;20.80;99.90
22966;DHT22;11649;48.090;9.754;2023-06-22T06:50:38;20.90;99.90
22966;DHT22;11649;48.090;9.754;2023-06-22T06:53:05;21.00;99.90
22966;DHT22;11649;48.090;9.754;2023-06-22T06:55:32;21.10;99.90
22966;DHT22;11649;48.090;9.754;2023-06-22T06:57:59;21.20;99.90
22966;DHT22;11649;48.090;9.754;2023-06-22T07:00:26;21.20;99.90
22966;DHT22;11649;48.090;9.754;2023-06-22T07:02:54;21.30;99.90
22966;DHT22;11649;48.090;9.754;2023-06-22T07:05:21;21.40;99.90
22966;DHT22;11649;48.090;9.754;2023-06-22T07:07:47;21.50;99.90
22966;DHT22;11649;48.090;9.754;2023-06-22T07:10:15;21.60;99.90
22966;DHT22;11649;48.090;9.754;2023-06-22T07:12:42;21.70;99.90
22966;DHT22;11649;48.090;9.754;2023-06-22T07:15:11;21.70;99.90
22966;DHT22;11649;48.090;9.754;2023-06-22T07:17:39;21.80;99.90
22966;DHT22;11649;48.090;9.754;2023-06-22T07:20:08;21.90;99.90
22966;DHT22;11649;48.090;9.754;2023-06-22T07:22:38;22.00;99.90
22966;DHT22;11649;48.090;9.754;2023-06-22T07:25:06;22.00;99.90
22966;DHT22;11649;48.090;9.754;2023-06-22T07:27:38;22.10;99.90
22966;DHT22;11649;48.090;9.754;2023-06-22T07:30:07;22.20;99.90
22966;DHT22;11649;48.090;9.754;2023-06-22T07:32:34;22.20;99.90
22966;DHT22;11649;48.090;9.754;2023-06-22T07:35:01;22.30;99.90
22966;DHT22;11649;48.090;9.754;2023-06-22T07:37:28;22.40;99.90
22966;DHT22;11649;48.090;9.754;2023-06-22T07:39:55;22.40;99.90
22966;DHT22;11649;48.090;9.754;2023-06-22T07:42:25;22.40;99.90
22966;DHT22;11649;48.090;9.754;2023-06-22T07:44:53;22.40;99.90
22966;DHT22;11649;48.090;9.754;2023-06-22T07:47:20;22.30;99.90
22966;DHT22;11649;48.090;9.754;2023-06-22T07:49:52;22.60;99.90
22966;DHT22;11649;48.090;9.754;2023-06-22T07:52:21;22.60;99.90
22966;DHT22;11649;48.090;9.754;2023-06-22T07:54:48;22.80;99.90
22966;DHT22;11649;48.090;9.754;2023-06-22T07:57:15;22.90;99.90
22966;DHT22;11649;48.090;9.754;2023-06-22T07:59:41;22.90;99.90
22966;DHT22;11649;48.090;9.754;2023-06-22T08:02:08;23.10;99.90
22966;DHT22;11649;48.090;9.754;2023-06-22T08:04:36;23.10;99.90
22966;DHT22;11649;48.090;9.754;2023-06-22T08:07:03;23.10;99.90
22966;DHT22;11649;48.090;9.754;2023-06-22T08:09:31;23.10;99.90
22966;DHT22;11649;48.090;9.754;2023-06-22T08:11:59;23.20;99.90
22966;DHT22;11649;48.090;9.754;2023-06-22T08:14:26;23.30;99.90
22966;DHT22;11649;48.090;9.754;2023-06-22T08:16:53;23.30;99.90
22966;DHT22;11649;48.090;9.754;2023-06-22T08:19:20;23.40;99.90
22966;DHT22;11649;48.090;9.754;2023-06-22T08:21:46;23.50;99.90
22966;DHT22;11649;48.090;9.754;2023-06-22T08:24:13;23.60;99.90
22966;DHT22;11649;48.090;9.754;2023-06-22T08:26:40;23.80;99.90
22966;DHT22;11649;48.090;9.754;2023-06-22T08:29:07;23.80;99.90
22966;DHT22;11649;48.090;9.754;2023-06-22T08:31:33;23.90;99.90
22966;DHT22;11649;48.090;9.754;2023-06-22T08:34:01;24.00;99.90
22966;DHT22;11649;48.090;9.754;2023-06-22T08:36:27;24.10;99.90
22966;DHT22;11649;48.090;9.754;2023-06-22T08:38:59;24.10;99.90
22966;DHT22;11649;48.090;9.754;2023-06-22T08:41:29;24.10;99.90
22966;DHT22;11649;48.090;9.754;2023-06-22T08:43:56;24.20;99.90
22966;DHT22;11649;48.090;9.754;2023-06-22T08:46:24;24.30;99.90
22966;DHT22;11649;48.090;9.754;2023-06-22T08:48:57;24.40;99.90
22966;DHT22;11649;48.090;9.754;2023-06-22T08:51:27;24.40;99.90
22966;DHT22;11649;48.090;9.754;2023-06-22T08:53:54;24.60;99.90
22966;DHT22;11649;48.090;9.754;2023-06-22T08:56:20;24.60;99.90
22966;DHT22;11649;48.090;9.754;2023-06-22T08:58:47;24.60;99.90
22966;DHT22;11649;48.090;9.754;2023-06-22T09:01:14;24.50;99.90
22966;DHT22;11649;48.090;9.754;2023-06-22T09:03:43;24.50;99.90
22966;DHT22;11649;48.090;9.754;2023-06-22T09:06:10;24.60;99.90
22966;DHT22;11649;48.090;9.754;2023-06-22T09:08:37;24.60;99.90
22966;DHT22;11649;48.090;9.754;2023-06-22T09:11:03;24.50;99.90
22966;DHT22;11649;48.090;9.754;2023-06-22T09:13:32;24.40;99.90
22966;DHT22;11649;48.090;9.754;2023-06-22T09:15:59;24.40;99.90
22966;DHT22;11649;48.090;9.754;2023-06-22T09:18:26;24.30;99.90
22966;DHT22;11649;48.090;9.754;2023-06-22T09:20:53;24.30;99.90
22966;DHT22;11649;48.090;9.754;2023-06-22T09:23:20;24.40;99.90
22966;DHT22;11649;48.090;9.754;2023-06-22T09:25:46;24.60;99.90
22966;DHT22;11649;48.090;9.754;2023-06-22T09:28:14;24.60;99.90
22966;DHT22;11649;48.090;9.754;2023-06-22T09:30:43;24.60;99.90
22966;DHT22;11649;48.090;9.754;2023-06-22T09:33:10;24.70;99.90
22966;DHT22;11649;48.090;9.754;2023-06-22T09:35:37;24.70;99.90
22966;DHT22;11649;48.090;9.754;2023-06-22T09:38:04;24.90;99.90
22966;DHT22;11649;48.090;9.754;2023-06-22T09:40:31;24.90;99.90
22966;DHT22;11649;48.090;9.754;2023-06-22T09:43:01;24.90;99.90
22966;DHT22;11649;48.090;9.754;2023-06-22T09:45:28;25.10;99.90
22966;DHT22;11649;48.090;9.754;2023-06-22T09:47:55;25.10;99.40
22966;DHT22;11649;48.090;9.754;2023-06-22T09:50:22;25.10;99.90
22966;DHT22;11649;48.090;9.754;2023-06-22T09:52:49;25.20;99.20
22966;DHT22;11649;48.090;9.754;2023-06-22T09:55:21;25.10;98.20
22966;DHT22;11649;48.090;9.754;2023-06-22T09:57:48;25.10;99.00
22966;DHT22;11649;48.090;9.754;2023-06-22T10:00:16;25.00;99.90
22966;DHT22;11649;48.090;9.754;2023-06-22T10:02:44;25.00;99.90
22966;DHT22;11649;48.090;9.754;2023-06-22T10:05:11;25.00;99.90
22966;DHT22;11649;48.090;9.754;2023-06-22T10:07:39;25.10;99.80
22966;DHT22;11649;48.090;9.754;2023-06-22T10:10:10;25.20;97.50
22966;DHT22;11649;48.090;9.754;2023-06-22T10:12:42;25.20;98.40
22966;DHT22;11649;48.090;9.754;2023-06-22T10:15:10;25.20;99.00
22966;DHT22;11649;48.090;9.754;2023-06-22T10:17:37;25.30;99.90
22966;DHT22;11649;48.090;9.754;2023-06-22T10:20:06;25.30;99.90
22966;DHT22;11649;48.090;9.754;2023-06-22T10:22:44;25.40;99.30
22966;DHT22;11649;48.090;9.754;2023-06-22T10:25:12;25.50;98.20
22966;DHT22;11649;48.090;9.754;2023-06-22T10:27:39;25.50;99.30
22966;DHT22;11649;48.090;9.754;2023-06-22T10:30:08;25.70;98.60
22966;DHT22;11649;48.090;9.754;2023-06-22T10:32:37;25.80;97.30
22966;DHT22;11649;48.090;9.754;2023-06-22T10:35:04;25.90;99.40
22966;DHT22;11649;48.090;9.754;2023-06-22T10:37:32;25.90;99.90
22966;DHT22;11649;48.090;9.754;2023-06-22T10:39:59;26.00;99.90
22966;DHT22;11649;48.090;9.754;2023-06-22T10:42:26;26.20;98.80
22966;DHT22;11649;48.090;9.754;2023-06-22T10:44:52;26.20;97.00
22966;DHT22;11649;48.090;9.754;2023-06-22T10:47:19;26.10;96.70
22966;DHT22;11649;48.090;9.754;2023-06-22T10:49:46;26.10;95.70
22966;DHT22;11649;48.090;9.754;2023-06-22T10:52:13;26.10;97.00
22966;DHT22;11649;48.090;9.754;2023-06-22T10:54:40;26.20;96.50
22966;DHT22;11649;48.090;9.754;2023-06-22T10:57:07;26.30;96.20
22966;DHT22;11649;48.090;9.754;2023-06-22T10:59:34;26.30;95.70
22966;DHT22;11649;48.090;9.754;2023-06-22T11:02:01;26.40;95.30
22966;DHT22;11649;48.090;9.754;2023-06-22T11:04:29;26.50;98.40
22966;DHT22;11649;48.090;9.754;2023-06-22T11:06:55;26.70;96.40
22966;DHT22;11649;48.090;9.754;2023-06-22T11:09:22;26.70;94.80
22966;DHT22;11649;48.090;9.754;2023-06-22T11:11:55;26.70;93.20
22966;DHT22;11649;48.090;9.754;2023-06-22T11:14:22;26.70;91.60
22966;DHT22;11649;48.090;9.754;2023-06-22T11:16:49;26.90;84.90
22966;DHT22;11649;48.090;9.754;2023-06-22T11:19:17;26.90;86.40
22966;DHT22;11649;48.090;9.754;2023-06-22T11:21:44;26.90;86.40
22966;DHT22;11649;48.090;9.754;2023-06-22T11:24:11;26.90;89.10
22966;DHT22;11649;48.090;9.754;2023-06-22T11:26:37;27.10;90.00
22966;DHT22;11649;48.090;9.754;2023-06-22T11:29:04;27.20;90.00
22966;DHT22;11649;48.090;9.754;2023-06-22T11:31:39;27.30;81.60
22966;DHT22;11649;48.090;9.754;2023-06-22T11:34:06;27.40;77.60
22966;DHT22;11649;48.090;9.754;2023-06-22T11:36:33;27.50;76.50
22966;DHT22;11649;48.090;9.754;2023-06-22T11:39:02;27.50;72.10
22966;DHT22;11649;48.090;9.754;2023-06-22T11:41:30;27.60;74.20
22966;DHT22;11649;48.090;9.754;2023-06-22T11:43:56;27.60;76.80
22966;DHT22;11649;48.090;9.754;2023-06-22T11:46:23;27.60;78.20
22966;DHT22;11649;48.090;9.754;2023-06-22T11:48:50;27.70;79.40
22966;DHT22;11649;48.090;9.754;2023-06-22T11:51:17;27.90;78.20
22966;DHT22;11649;48.090;9.754;2023-06-22T11:53:43;28.00;78.10
22966;DHT22;11649;48.090;9.754;2023-06-22T11:56:10;28.10;77.80
22966;DHT22;11649;48.090;9.754;2023-06-22T11:58:37;28.20;75.90
22966;DHT22;11649;48.090;9.754;2023-06-22T12:01:04;28.20;75.80
22966;DHT22;11649;48.090;9.754;2023-06-22T12:03:31;28.10;74.80
22966;DHT22;11649;48.090;9.754;2023-06-22T12:05:59;28.00;75.00
22966;DHT22;11649;48.090;9.754;2023-06-22T12:08:26;27.90;75.70
22966;DHT22;11649;48.090;9.754;2023-06-22T12:10:53;27.90;76.90
22966;DHT22;11649;48.090;9.754;2023-06-22T12:13:20;27.80;78.10
22966;DHT22;11649;48.090;9.754;2023-06-22T12:15:47;27.80;76.40
22966;DHT22;11649;48.090;9.754;2023-06-22T12:18:14;27.70;71.90
22966;DHT22;11649;48.090;9.754;2023-06-22T12:20:41;27.70;69.40
22966;DHT22;11649;48.090;9.754;2023-06-22T12:23:08;27.60;70.40
22966;DHT22;11649;48.090;9.754;2023-06-22T12:25:35;27.70;68.20
22966;DHT22;11649;48.090;9.754;2023-06-22T12:28:02;27.70;69.60
22966;DHT22;11649;48.090;9.754;2023-06-22T12:30:29;27.70;71.10
22966;DHT22;11649;48.090;9.754;2023-06-22T12:32:56;27.80;71.70
22966;DHT22;11649;48.090;9.754;2023-06-22T12:35:23;27.70;71.80
22966;DHT22;11649;48.090;9.754;2023-06-22T12:37:50;27.70;72.60
22966;DHT22;11649;48.090;9.754;2023-06-22T12:40:16;27.60;70.90
22966;DHT22;11649;48.090;9.754;2023-06-22T12:42:45;27.70;73.10
22966;DHT22;11649;48.090;9.754;2023-06-22T12:45:11;27.70;73.40
22966;DHT22;11649;48.090;9.754;2023-06-22T12:47:38;27.80;72.80
22966;DHT22;11649;48.090;9.754;2023-06-22T12:50:06;27.90;73.60
22966;DHT22;11649;48.090;9.754;2023-06-22T12:52:32;28.00;72.90
22966;DHT22;11649;48.090;9.754;2023-06-22T12:54:59;28.20;72.00
22966;DHT22;11649;48.090;9.754;2023-06-22T12:57:26;28.30;72.30
22966;DHT22;11649;48.090;9.754;2023-06-22T12:59:53;28.20;71.80
22966;DHT22;11649;48.090;9.754;2023-06-22T13:02:20;28.10;72.10
22966;DHT22;11649;48.090;9.754;2023-06-22T13:04:47;28.10;73.20
22966;DHT22;11649;48.090;9.754;2023-06-22T13:07:13;28.10;75.70
22966;DHT22;11649;48.090;9.754;2023-06-22T13:09:50;28.00;75.40
22966;DHT22;11649;48.090;9.754;2023-06-22T13:12:20;27.90;77.30
22966;DHT22;11649;48.090;9.754;2023-06-22T13:14:47;27.80;79.00
22966;DHT22;11649;48.090;9.754;2023-06-22T13:17:14;27.80;80.10
22966;DHT22;11649;48.090;9.754;2023-06-22T13:19:41;27.80;79.90
22966;DHT22;11649;48.090;9.754;2023-06-22T13:22:35;27.80;81.50
22966;DHT22;11649;48.090;9.754;2023-06-22T13:25:07;27.70;82.10
22966;DHT22;11649;48.090;9.754;2023-06-22T13:27:34;27.80;84.10
22966;DHT22;11649;48.090;9.754;2023-06-22T13:30:04;27.80;83.50
22966;DHT22;11649;48.090;9.754;2023-06-22T13:32:31;27.80;82.60
22966;DHT22;11649;48.090;9.754;2023-06-22T13:34:58;27.80;84.40
22966;DHT22;11649;48.090;9.754;2023-06-22T13:37:25;27.80;84.80
22966;DHT22;11649;48.090;9.754;2023-06-22T13:39:52;27.80;84.30
22966;DHT22;11649;48.090;9.754;2023-06-22T13:42:19;27.90;85.20
22966;DHT22;11649;48.090;9.754;2023-06-22T13:44:46;27.90;87.10
22966;DHT22;11649;48.090;9.754;2023-06-22T13:47:13;28.00;88.10
22966;DHT22;11649;48.090;9.754;2023-06-22T13:49:39;28.20;88.10
22966;DHT22;11649;48.090;9.754;2023-06-22T13:52:06;28.30;82.70
22966;DHT22;11649;48.090;9.754;2023-06-22T13:54:36;28.40;81.50
22966;DHT22;11649;48.090;9.754;2023-06-22T13:57:03;28.80;78.70
22966;DHT22;11649;48.090;9.754;2023-06-22T13:59:30;29.20;77.10
22966;DHT22;11649;48.090;9.754;2023-06-22T14:01:57;29.60;76.10
22966;DHT22;11649;48.090;9.754;2023-06-22T14:04:24;29.70;74.90
22966;DHT22;11649;48.090;9.754;2023-06-22T14:06:51;30.10;72.30
22966;DHT22;11649;48.090;9.754;2023-06-22T14:09:21;30.40;70.30
22966;DHT22;11649;48.090;9.754;2023-06-22T14:11:48;30.50;69.40
22966;DHT22;11649;48.090;9.754;2023-06-22T14:14:15;30.50;67.20
22966;DHT22;11649;48.090;9.754;2023-06-22T14:16:42;30.90;66.00
22966;DHT22;11649;48.090;9.754;2023-06-22T14:19:08;31.00;62.00
22966;DHT22;11649;48.090;9.754;2023-06-22T14:21:35;31.20;59.20
22966;DHT22;11649;48.090;9.754;2023-06-22T14:24:02;31.30;60.20
22966;DHT22;11649;48.090;9.754;2023-06-22T14:26:29;30.90;61.10
22966;DHT22;11649;48.090;9.754;2023-06-22T14:28:55;30.50;62.10
22966;DHT22;11649;48.090;9.754;2023-06-22T14:31:23;30.50;61.30
22966;DHT22;11649;48.090;9.754;2023-06-22T14:33:50;31.00;60.80
22966;DHT22;11649;48.090;9.754;2023-06-22T14:36:17;31.80;57.50
22966;DHT22;11649;48.090;9.754;2023-06-22T14:38:45;31.60;55.50
22966;DHT22;11649;48.090;9.754;2023-06-22T14:41:13;32.10;57.10
22966;DHT22;11649;48.090;9.754;2023-06-22T14:43:49;32.70;56.50
22966;DHT22;11649;48.090;9.754;2023-06-22T14:46:18;33.50;54.10
22966;DHT22;11649;48.090;9.754;2023-06-22T14:48:45;34.20;53.00
22966;DHT22;11649;48.090;9.754;2023-06-22T14:51:12;34.50;50.50
22966;DHT22;11649;48.090;9.754;2023-06-22T14:53:44;34.10;47.90
22966;DHT22;11649;48.090;9.754;2023-06-22T14:56:11;33.90;48.00
22966;DHT22;11649;48.090;9.754;2023-06-22T14:58:41;33.50;49.50
22966;DHT22;11649;48.090;9.754;2023-06-22T15:01:12;33.00;50.50
22966;DHT22;11649;48.090;9.754;2023-06-22T15:03:39;32.30;51.00
22966;DHT22;11649;48.090;9.754;2023-06-22T15:06:05;31.60;52.70
22966;DHT22;11649;48.090;9.754;2023-06-22T15:08:33;31.00;54.90
22966;DHT22;11649;48.090;9.754;2023-06-22T15:11:00;30.60;56.20
22966;DHT22;11649;48.090;9.754;2023-06-22T15:13:30;30.50;56.40
22966;DHT22;11649;48.090;9.754;2023-06-22T15:16:02;30.40;57.70
22966;DHT22;11649;48.090;9.754;2023-06-22T15:18:30;30.20;59.00
22966;DHT22;11649;48.090;9.754;2023-06-22T15:20:57;29.80;60.00
22966;DHT22;11649;48.090;9.754;2023-06-22T15:23:25;29.40;60.10
22966;DHT22;11649;48.090;9.754;2023-06-22T15:25:52;29.20;60.00
22966;DHT22;11649;48.090;9.754;2023-06-22T15:28:19;29.10;61.30
22966;DHT22;11649;48.090;9.754;2023-06-22T15:30:51;28.90;59.60
22966;DHT22;11649;48.090;9.754;2023-06-22T15:33:18;29.00;59.60
22966;DHT22;11649;48.090;9.754;2023-06-22T15:35:45;28.90;61.00
22966;DHT22;11649;48.090;9.754;2023-06-22T15:38:12;28.80;60.70
22966;DHT22;11649;48.090;9.754;2023-06-22T15:40:39;28.80;60.10
22966;DHT22;11649;48.090;9.754;2023-06-22T15:43:06;29.10;59.40